CheckWX is a tool to help pilots better visualize weather data.  It is not intended as a substitute for an official pre-flight weather briefing.

00:55:26 UTC

EGVO METAR
RAF Odiham Airport
Odiham, United Kingdom
Current

1 hour ago

EGVO 232350Z AUTO 07004KT 9999 NCD 06/03 Q1032
Observed
Mar-23 @ 23:50 UTC
Wind
  • 070° at 4 KTS
Visibility
10,000+ meters
Flight Rules
VFR
Cloud Levels
  • Clear skies
Temperature
C / 43°F
Dewpoint
C / 37°F
Humidity
81%
Altimeter
30.47" Hg
Pressure
1031.91 hPa
Previous

2 hours ago

EGVO 232250Z AUTO 10005KT 9999 FEW026/// 06/03 Q1032
Observed
Mar-23 @ 22:50 UTC
Wind
  • 100° at 5 KTS
Visibility
10,000+ meters
Flight Rules
VFR
Cloud Levels
  • Few at 2,600' AGL
Temperature
C / 43°F
Dewpoint
C / 37°F
Humidity
81%
Altimeter
30.47" Hg
Pressure
1031.91 hPa
Previous

3 hours ago

EGVO 232150Z AUTO 09005KT 9999 BKN026/// BKN047/// 09/05 Q1032
Observed
Mar-23 @ 21:50 UTC
Wind
  • 090° at 5 KTS
Visibility
10,000+ meters
Flight Rules
MVFR
Cloud Levels
  • Broken at 2,600' AGL
  • Broken at 4,700' AGL
Temperature
C / 48°F
Dewpoint
C / 41°F
Humidity
76%
Altimeter
30.47" Hg
Pressure
1031.91 hPa